createdAt,value
2023-05-08T00:01:24.062Z,101836.44
2023-05-08T00:03:52.317Z,101838.94
2023-05-08T00:06:19.629Z,101835.47
2023-05-08T00:08:46.535Z,101835.53
2023-05-08T00:11:13.665Z,101838.19
2023-05-08T00:13:41.638Z,101839.41
2023-05-08T00:16:09.870Z,101833.84
2023-05-08T00:18:39.034Z,101835.47
2023-05-08T00:21:06.492Z,101826.78
2023-05-08T00:23:34.315Z,101827.56
2023-05-08T00:26:01.316Z,101835.22
2023-05-08T00:28:28.381Z,101833.59
2023-05-08T00:30:55.355Z,101827.69
2023-05-08T00:33:22.442Z,101829.72
2023-05-08T00:35:49.498Z,101830.41
2023-05-08T00:38:16.420Z,101826.88
2023-05-08T00:40:46.062Z,101831.69
2023-05-08T00:43:13.066Z,101838.94
2023-05-08T00:45:40.074Z,101836.66
2023-05-08T00:48:07.743Z,101835.50
2023-05-08T00:50:35.324Z,101846.34
2023-05-08T00:53:04.204Z,101833.22
2023-05-08T00:55:32.062Z,101840.13
2023-05-08T00:57:59.159Z,101841.16
2023-05-08T01:00:26.183Z,101835.94
2023-05-08T01:02:53.274Z,101842.28
2023-05-08T01:05:20.795Z,101848.47
2023-05-08T01:07:48.286Z,101846.53
2023-05-08T01:10:16.700Z,101848.28
2023-05-08T01:13:08.571Z,101857.50
2023-05-08T01:15:41.650Z,101849.81
2023-05-08T01:18:28.508Z,101843.69
2023-05-08T01:21:18.043Z,101848.19
2023-05-08T01:23:57.740Z,101851.41
2023-05-08T01:27:05.699Z,101842.88
2023-05-08T01:29:44.351Z,101854.13
2023-05-08T01:32:30.680Z,101852.78
2023-05-08T01:35:06.927Z,101849.09
2023-05-08T01:38:10.186Z,101860.69
2023-05-08T01:40:53.214Z,101860.81
2023-05-08T01:43:42.078Z,101858.19
2023-05-08T01:46:18.381Z,101848.63
2023-05-08T01:49:00.872Z,101862.69
2023-05-08T01:51:29.404Z,101869.81
2023-05-08T01:54:01.057Z,101856.63
2023-05-08T01:56:30.270Z,101863.47
2023-05-08T01:58:58.615Z,101862.41
2023-05-08T02:01:26.617Z,101866.69
2023-05-08T02:03:56.670Z,101864.75
2023-05-08T02:06:23.849Z,101869.94
2023-05-08T02:08:51.837Z,101868.19
2023-05-08T02:11:20.047Z,101872.66
2023-05-08T02:13:48.507Z,101874.66
2023-05-08T02:16:16.045Z,101872.00
2023-05-08T02:18:52.716Z,101868.72
2023-05-08T02:21:20.329Z,101867.19
2023-05-08T02:23:47.449Z,101877.78
2023-05-08T02:26:16.068Z,101876.78
2023-05-08T02:28:43.450Z,101871.50
2023-05-08T02:31:11.606Z,101870.72
2023-05-08T02:33:42.652Z,101871.81
2023-05-08T02:36:11.820Z,101869.34
2023-05-08T02:38:40.092Z,101867.56
2023-05-08T02:41:08.358Z,101864.44
2023-05-08T02:43:35.843Z,101866.25
2023-05-08T02:46:27.996Z,101857.75
2023-05-08T02:49:03.868Z,101861.16
2023-05-08T02:51:55.656Z,101853.25
2023-05-08T02:54:40.694Z,101855.13
2023-05-08T02:57:21.710Z,101858.06
2023-05-08T03:00:03.753Z,101858.31
2023-05-08T03:02:38.602Z,101858.25
2023-05-08T03:05:15.862Z,101861.56
2023-05-08T03:07:43.250Z,101867.63
2023-05-08T03:10:16.332Z,101862.53
2023-05-08T03:12:47.198Z,101863.91
2023-05-08T03:15:24.173Z,101859.94
2023-05-08T03:17:54.271Z,101858.31
2023-05-08T03:20:25.017Z,101860.94
2023-05-08T03:22:54.169Z,101862.19
2023-05-08T03:25:21.681Z,101863.88
2023-05-08T03:27:49.413Z,101869.19
2023-05-08T03:30:17.325Z,101861.41
2023-05-08T03:32:53.552Z,101863.44
2023-05-08T03:35:21.895Z,101861.75
2023-05-08T03:37:49.291Z,101869.78
2023-05-08T03:40:17.746Z,101870.66
2023-05-08T03:42:45.227Z,101861.91
2023-05-08T03:45:14.428Z,101873.00
2023-05-08T03:47:42.462Z,101871.31
2023-05-08T03:50:10.464Z,101866.94
2023-05-08T03:52:38.726Z,101872.09
2023-05-08T03:55:06.697Z,101870.22
2023-05-08T03:57:42.340Z,101869.28
2023-05-08T04:01:02.318Z,101870.34
2023-05-08T04:03:50.599Z,101875.22
2023-05-08T04:06:28.720Z,101875.69
2023-05-08T04:09:26.160Z,101872.34
2023-05-08T04:12:02.912Z,101874.78
2023-05-08T04:14:35.854Z,101884.50
2023-05-08T04:17:04.915Z,101885.81
2023-05-08T04:19:34.644Z,101890.66
2023-05-08T04:22:08.726Z,101886.09
2023-05-08T04:24:42.564Z,101892.06
2023-05-08T04:27:12.185Z,101891.09
2023-05-08T04:29:41.366Z,101888.03
2023-05-08T04:32:09.593Z,101897.66
2023-05-08T04:34:37.269Z,101897.66
2023-05-08T04:37:06.943Z,101902.06
2023-05-08T04:39:34.858Z,101902.06
2023-05-08T04:42:03.967Z,101905.06
2023-05-08T04:44:33.647Z,101908.09
2023-05-08T04:47:00.585Z,101899.69
2023-05-08T04:49:28.065Z,101901.22
2023-05-08T04:51:55.195Z,101914.97
2023-05-08T04:54:22.091Z,101918.91
2023-05-08T04:56:49.814Z,101918.50
2023-05-08T04:59:16.881Z,101929.44
2023-05-08T05:01:47.006Z,101929.13
2023-05-08T05:04:14.333Z,101935.75
2023-05-08T05:06:41.417Z,101935.09
2023-05-08T05:09:09.195Z,101937.78
2023-05-08T05:11:36.234Z,101941.81
2023-05-08T05:14:03.236Z,101947.78
2023-05-08T05:16:30.174Z,101949.94
2023-05-08T05:18:57.120Z,101961.25
2023-05-08T05:21:24.108Z,101955.06
2023-05-08T05:23:51.305Z,101950.22
2023-05-08T05:26:19.418Z,101945.88
2023-05-08T05:28:46.363Z,101948.34
2023-05-08T05:31:13.622Z,101947.88
2023-05-08T05:33:40.848Z,101950.63
2023-05-08T05:36:08.094Z,101950.84
2023-05-08T05:38:35.026Z,101952.91
2023-05-08T05:41:02.163Z,101948.13
2023-05-08T05:43:29.136Z,101948.66
2023-05-08T05:45:56.465Z,101950.31
2023-05-08T05:48:24.267Z,101950.19
2023-05-08T05:50:51.136Z,101949.72
2023-05-08T05:53:18.099Z,101953.69
2023-05-08T05:55:45.332Z,101953.66
2023-05-08T05:58:12.242Z,101961.88
2023-05-08T06:00:39.090Z,101961.19
2023-05-08T06:03:06.222Z,101966.97
2023-05-08T06:05:34.885Z,101965.16
2023-05-08T06:08:01.814Z,101973.78
2023-05-08T06:10:29.839Z,101968.00
2023-05-08T06:12:57.220Z,101963.13
2023-05-08T06:15:24.744Z,101976.78
2023-05-08T06:17:52.989Z,101978.31
2023-05-08T06:20:20.053Z,101968.94
2023-05-08T06:22:46.934Z,101969.06
2023-05-08T06:25:14.016Z,101967.06
2023-05-08T06:27:41.347Z,101959.34
2023-05-08T06:30:08.833Z,101961.47
2023-05-08T06:32:36.075Z,101956.22
2023-05-08T06:35:03.522Z,101957.09
2023-05-08T06:37:31.174Z,101958.44
2023-05-08T06:40:10.819Z,101963.25
2023-05-08T06:42:39.841Z,101968.50
2023-05-08T06:45:07.839Z,101964.72
2023-05-08T06:47:35.440Z,101960.63
2023-05-08T06:50:02.361Z,101964.66
2023-05-08T06:52:29.510Z,101969.78
2023-05-08T06:54:56.665Z,101968.00
2023-05-08T06:57:24.583Z,101964.91
2023-05-08T06:59:52.138Z,101967.19
2023-05-08T07:02:19.373Z,101974.19
2023-05-08T07:04:47.084Z,101971.88
2023-05-08T07:07:14.438Z,101971.78
2023-05-08T07:09:41.628Z,101965.31
2023-05-08T07:12:09.062Z,101968.41
2023-05-08T07:14:35.999Z,101967.22
2023-05-08T07:17:07.876Z,101967.75
2023-05-08T07:19:38.482Z,101967.03
2023-05-08T07:22:06.974Z,101965.09
2023-05-08T07:24:33.981Z,101966.69
2023-05-08T07:27:01.535Z,101962.78
2023-05-08T07:29:30.372Z,101968.69
2023-05-08T07:31:57.812Z,101956.06
2023-05-08T07:34:25.165Z,101967.38
2023-05-08T07:36:52.074Z,101961.84
2023-05-08T07:39:19.613Z,101956.03
2023-05-08T07:41:49.100Z,101962.91
2023-05-08T07:44:16.679Z,101963.69
2023-05-08T07:46:43.619Z,101959.38
2023-05-08T07:49:10.531Z,101970.41
2023-05-08T07:51:37.788Z,101967.59
2023-05-08T07:54:04.779Z,101958.41
2023-05-08T07:56:31.748Z,101957.84
2023-05-08T07:58:58.651Z,101961.31
2023-05-08T08:01:25.971Z,101958.56
2023-05-08T08:03:54.622Z,101956.69
2023-05-08T08:06:21.678Z,101957.94
2023-05-08T08:08:48.624Z,101953.94
2023-05-08T08:11:15.720Z,101962.63
2023-05-08T08:13:42.854Z,101946.75
2023-05-08T08:16:09.730Z,101962.56
2023-05-08T08:18:37.097Z,101956.88
2023-05-08T08:21:08.120Z,101943.47
2023-05-08T08:23:35.308Z,101947.78
2023-05-08T08:26:02.150Z,101948.81
2023-05-08T08:28:29.160Z,101946.22
2023-05-08T08:30:56.529Z,101942.47
2023-05-08T08:33:24.989Z,101946.03
2023-05-08T08:35:52.287Z,101936.56
2023-05-08T08:38:21.222Z,101943.69
2023-05-08T08:40:48.191Z,101945.34
2023-05-08T08:43:15.439Z,101938.75
2023-05-08T08:45:42.962Z,101939.31
2023-05-08T08:48:12.311Z,101937.00
2023-05-08T08:50:43.614Z,101948.91
2023-05-08T08:53:38.132Z,101945.16
2023-05-08T08:56:06.432Z,101943.59
2023-05-08T08:58:38.133Z,101935.59
2023-05-08T09:01:07.570Z,101940.03
2023-05-08T09:03:34.620Z,101935.41
2023-05-08T09:06:01.845Z,101936.75
2023-05-08T09:08:28.986Z,101930.22
2023-05-08T09:10:56.616Z,101929.13
2023-05-08T09:13:23.536Z,101926.47
2023-05-08T09:15:51.072Z,101925.97
2023-05-08T09:18:18.412Z,101927.31
2023-05-08T09:20:45.402Z,101923.44
2023-05-08T09:23:14.270Z,101925.25
2023-05-08T09:25:44.402Z,101931.97
2023-05-08T09:28:19.358Z,101927.44
2023-05-08T09:30:57.180Z,101926.19
2023-05-08T09:33:26.105Z,101939.53
2023-05-08T09:35:53.976Z,101923.34
2023-05-08T09:38:34.976Z,101927.56
2023-05-08T09:41:14.887Z,101904.25
2023-05-08T09:43:43.497Z,101927.59
2023-05-08T09:46:19.669Z,101922.09
2023-05-08T09:48:46.703Z,101912.44
2023-05-08T09:51:13.751Z,101908.84
2023-05-08T09:53:40.653Z,101911.22
2023-05-08T09:56:07.644Z,101916.25
2023-05-08T09:58:42.082Z,101918.72
2023-05-08T10:01:28.438Z,101906.69
2023-05-08T10:03:55.514Z,101909.94
2023-05-08T10:06:22.612Z,101914.75
2023-05-08T10:08:50.674Z,101906.66
2023-05-08T10:11:19.715Z,101913.69
2023-05-08T10:13:47.255Z,101915.16
2023-05-08T10:16:16.426Z,101919.34
2023-05-08T10:18:49.107Z,101911.97
2023-05-08T10:21:17.787Z,101903.16
2023-05-08T10:23:49.970Z,101907.97
2023-05-08T10:26:21.987Z,101905.31
2023-05-08T10:29:00.457Z,101910.50
2023-05-08T10:31:32.300Z,101905.63
2023-05-08T10:34:02.187Z,101905.28
2023-05-08T10:36:31.124Z,101900.97
2023-05-08T10:38:59.001Z,101902.88
2023-05-08T10:41:27.043Z,101899.53
2023-05-08T10:43:54.837Z,101897.44
2023-05-08T10:46:27.429Z,101897.66
2023-05-08T10:49:17.220Z,101898.03
2023-05-08T10:52:17.947Z,101887.13
2023-05-08T10:55:13.981Z,101876.22
2023-05-08T10:57:41.393Z,101868.41
2023-05-08T11:00:08.912Z,101874.88
2023-05-08T11:02:38.136Z,101866.84
2023-05-08T11:05:18.111Z,101855.72
2023-05-08T11:07:55.320Z,101865.84
2023-05-08T11:10:23.188Z,101861.69
2023-05-08T11:12:50.981Z,101862.88
2023-05-08T11:15:36.310Z,101860.97
2023-05-08T11:18:08.180Z,101860.63
2023-05-08T11:20:42.581Z,101862.72
2023-05-08T11:23:32.813Z,101860.75
2023-05-08T11:26:04.818Z,101858.06
2023-05-08T11:28:56.022Z,101853.97
2023-05-08T11:31:23.556Z,101855.59
2023-05-08T11:33:50.530Z,101856.59
2023-05-08T11:36:23.285Z,101851.72
2023-05-08T11:39:20.783Z,101848.91
2023-05-08T11:41:48.324Z,101850.22
2023-05-08T11:44:23.005Z,101846.56
2023-05-08T11:46:52.778Z,101840.59
2023-05-08T11:49:24.957Z,101842.28
2023-05-08T11:51:55.603Z,101840.13
2023-05-08T11:54:23.151Z,101845.81
2023-05-08T11:56:51.975Z,101835.19
2023-05-08T11:59:19.364Z,101831.53
2023-05-08T12:02:06.907Z,101819.09
2023-05-08T12:04:44.631Z,101829.34
2023-05-08T12:07:12.088Z,101825.19
2023-05-08T12:09:39.141Z,101818.97
2023-05-08T12:12:06.172Z,101816.44
2023-05-08T12:14:36.756Z,101825.75
2023-05-08T12:17:05.036Z,101828.66
2023-05-08T12:19:32.321Z,101830.06
2023-05-08T12:21:59.245Z,101826.22
2023-05-08T12:24:27.078Z,101824.22
2023-05-08T12:26:56.328Z,101811.06
2023-05-08T12:29:24.977Z,101820.13
2023-05-08T12:31:52.212Z,101822.81
2023-05-08T12:34:19.313Z,101811.69
2023-05-08T12:36:46.319Z,101816.75
2023-05-08T12:39:17.997Z,101816.50
2023-05-08T12:41:49.980Z,101807.59
2023-05-08T12:44:18.945Z,101800.25
2023-05-08T12:46:59.710Z,101804.19
2023-05-08T12:49:29.135Z,101801.63
2023-05-08T12:52:07.039Z,101791.22
2023-05-08T12:54:41.956Z,101802.00
2023-05-08T12:57:12.739Z,101794.41
2023-05-08T12:59:40.976Z,101787.41
2023-05-08T13:02:16.387Z,101800.53
2023-05-08T13:04:44.180Z,101791.69
2023-05-08T13:07:11.906Z,101786.06
2023-05-08T13:09:39.528Z,101790.13
2023-05-08T13:12:09.730Z,101782.13
2023-05-08T13:14:36.582Z,101778.53
2023-05-08T13:17:03.735Z,101781.81
2023-05-08T13:19:30.870Z,101767.34
2023-05-08T13:21:57.783Z,101773.16
2023-05-08T13:24:26.077Z,101766.22
2023-05-08T13:26:53.018Z,101753.38
2023-05-08T13:29:22.300Z,101752.38
2023-05-08T13:31:50.595Z,101749.16
2023-05-08T13:34:17.922Z,101753.06
2023-05-08T13:36:44.859Z,101752.09
2023-05-08T13:39:11.956Z,101749.66
2023-05-08T13:41:38.895Z,101745.25
2023-05-08T13:44:06.126Z,101741.75
2023-05-08T13:46:33.213Z,101734.69
2023-05-08T13:49:00.212Z,101735.31
2023-05-08T13:51:28.602Z,101730.09
2023-05-08T13:53:55.995Z,101728.66
2023-05-08T13:56:23.205Z,101737.25
2023-05-08T13:58:50.073Z,101733.22
2023-05-08T14:01:26.499Z,101729.72
2023-05-08T14:03:55.716Z,101723.81
2023-05-08T14:06:22.828Z,101723.03
2023-05-08T14:08:51.479Z,101726.53
2023-05-08T14:11:19.848Z,101719.84
2023-05-08T14:13:46.740Z,101714.97
2023-05-08T14:16:15.328Z,101713.69
2023-05-08T14:18:42.420Z,101718.53
2023-05-08T14:21:09.393Z,101706.50
2023-05-08T14:23:36.357Z,101708.09
2023-05-08T14:26:03.367Z,101704.91
2023-05-08T14:28:30.363Z,101708.91
2023-05-08T14:30:57.243Z,101705.28
2023-05-08T14:33:24.191Z,101702.91
2023-05-08T14:35:51.092Z,101701.69
2023-05-08T14:38:18.036Z,101690.75
2023-05-08T14:40:45.250Z,101699.19
2023-05-08T14:43:12.185Z,101679.78
2023-05-08T14:45:39.462Z,101678.22
2023-05-08T14:48:07.020Z,101685.41
2023-05-08T14:50:34.240Z,101682.28
2023-05-08T14:53:01.825Z,101682.44
2023-05-08T14:55:29.046Z,101682.41
2023-05-08T14:57:56.612Z,101680.94
2023-05-08T15:00:23.660Z,101683.25
2023-05-08T15:02:50.690Z,101680.13
2023-05-08T15:05:19.969Z,101687.72
2023-05-08T15:07:49.924Z,101687.72
2023-05-08T15:10:16.947Z,101681.50
2023-05-08T15:12:43.944Z,101686.72
2023-05-08T15:15:11.511Z,101684.66
2023-05-08T15:17:41.717Z,101684.78
2023-05-08T15:20:09.553Z,101677.31
2023-05-08T15:22:37.235Z,101677.41
2023-05-08T15:25:04.978Z,101681.59
2023-05-08T15:27:31.956Z,101680.53
2023-05-08T15:30:00.179Z,101688.19
2023-05-08T15:32:27.478Z,101678.31
2023-05-08T15:34:54.438Z,101682.22
2023-05-08T15:37:21.354Z,101678.31
2023-05-08T15:39:49.992Z,101678.81
2023-05-08T15:42:17.234Z,101674.56
2023-05-08T15:44:54.465Z,101670.66
2023-05-08T15:47:23.615Z,101660.88
2023-05-08T15:49:51.254Z,101663.28
2023-05-08T15:52:20.020Z,101665.19
2023-05-08T15:54:47.477Z,101669.56
2023-05-08T15:57:14.901Z,101663.28
2023-05-08T15:59:42.037Z,101669.16
2023-05-08T16:02:09.923Z,101672.59
2023-05-08T16:04:36.950Z,101654.22
2023-05-08T16:07:04.294Z,101661.84
2023-05-08T16:09:33.988Z,101659.09
2023-05-08T16:12:01.475Z,101655.50
2023-05-08T16:14:28.510Z,101656.13
2023-05-08T16:16:55.830Z,101662.34
2023-05-08T16:19:22.650Z,101659.66
2023-05-08T16:21:49.669Z,101654.19
2023-05-08T16:24:16.577Z,101648.78
2023-05-08T16:26:43.480Z,101653.25
2023-05-08T16:29:10.384Z,101656.63
2023-05-08T16:31:37.539Z,101652.91
2023-05-08T16:34:04.462Z,101652.09
2023-05-08T16:36:31.410Z,101658.31
2023-05-08T16:38:58.374Z,101650.59
2023-05-08T16:41:25.365Z,101643.03
2023-05-08T16:43:53.023Z,101657.00
2023-05-08T16:46:29.233Z,101648.88
2023-05-08T16:48:58.981Z,101652.84
2023-05-08T16:51:26.922Z,101648.88
2023-05-08T16:53:54.964Z,101656.78
2023-05-08T16:56:23.409Z,101657.34
2023-05-08T16:58:50.378Z,101657.09
2023-05-08T17:01:17.395Z,101651.81
2023-05-08T17:03:44.709Z,101644.84
2023-05-08T17:06:11.702Z,101663.25
2023-05-08T17:08:38.675Z,101642.84
2023-05-08T17:11:05.701Z,101652.38
2023-05-08T17:13:32.644Z,101652.53
2023-05-08T17:16:00.341Z,101646.97
2023-05-08T17:18:27.540Z,101644.81
2023-05-08T17:20:54.496Z,101640.44
2023-05-08T17:23:21.409Z,101641.44
2023-05-08T17:25:48.368Z,101648.97
2023-05-08T17:28:15.430Z,101642.31
2023-05-08T17:30:42.504Z,101644.28
2023-05-08T17:33:09.671Z,101634.34
2023-05-08T17:35:36.629Z,101642.88
2023-05-08T17:38:03.527Z,101651.22
2023-05-08T17:40:30.873Z,101648.47
2023-05-08T17:43:00.933Z,101649.44
2023-05-08T17:45:27.923Z,101646.53
2023-05-08T17:47:55.713Z,101640.97
2023-05-08T17:50:23.094Z,101648.47
2023-05-08T17:52:51.687Z,101643.63
2023-05-08T17:55:18.689Z,101645.88
2023-05-08T17:57:45.528Z,101645.22
2023-05-08T18:00:13.351Z,101640.63
2023-05-08T18:02:40.575Z,101642.03
2023-05-08T18:05:08.002Z,101648.41
2023-05-08T18:07:35.049Z,101660.53
2023-05-08T18:10:02.132Z,101652.81
2023-05-08T18:12:29.861Z,101658.56
2023-05-08T18:14:56.850Z,101662.75
2023-05-08T18:17:23.876Z,101657.66
2023-05-08T18:19:51.001Z,101659.97
2023-05-08T18:22:18.351Z,101660.31
2023-05-08T18:24:45.930Z,101660.28
2023-05-08T18:27:13.077Z,101671.84
2023-05-08T18:29:40.066Z,101666.28
2023-05-08T18:32:07.059Z,101665.22
2023-05-08T18:34:34.071Z,101675.06
2023-05-08T18:37:02.462Z,101665.84
2023-05-08T18:39:29.433Z,101675.97
2023-05-08T18:41:57.045Z,101668.16
2023-05-08T18:44:23.929Z,101671.81
2023-05-08T18:46:51.532Z,101674.72
2023-05-08T18:49:19.708Z,101668.69
2023-05-08T18:51:46.843Z,101674.31
2023-05-08T18:54:14.147Z,101678.97
2023-05-08T18:56:41.152Z,101681.31
2023-05-08T18:59:08.998Z,101683.94
2023-05-08T19:01:36.050Z,101679.25
2023-05-08T19:04:04.566Z,101684.59
2023-05-08T19:06:31.865Z,101687.91
2023-05-08T19:08:58.804Z,101691.19
2023-05-08T19:11:26.693Z,101692.63
2023-05-08T19:13:53.713Z,101697.34
2023-05-08T19:16:20.701Z,101688.94
2023-05-08T19:18:47.680Z,101694.44
2023-05-08T19:21:14.818Z,101695.34
2023-05-08T19:23:41.748Z,101692.19
2023-05-08T19:26:08.924Z,101698.41
2023-05-08T19:28:36.126Z,101698.78
2023-05-08T19:31:03.139Z,101698.88
2023-05-08T19:33:30.337Z,101702.03
2023-05-08T19:35:57.378Z,101689.91
2023-05-08T19:38:24.275Z,101695.94
2023-05-08T19:40:56.525Z,101698.13
2023-05-08T19:43:25.890Z,101695.16
2023-05-08T19:45:53.239Z,101696.09
2023-05-08T19:48:20.516Z,101703.47
2023-05-08T19:50:47.701Z,101694.22
2023-05-08T19:53:14.676Z,101692.50
2023-05-08T19:55:41.824Z,101699.56
2023-05-08T19:58:08.736Z,101696.13
2023-05-08T20:00:35.941Z,101697.34
2023-05-08T20:03:03.092Z,101696.38
2023-05-08T20:05:30.267Z,101696.38
2023-05-08T20:07:57.166Z,101696.69
2023-05-08T20:10:24.324Z,101704.69
2023-05-08T20:12:51.585Z,101702.50
2023-05-08T20:15:18.549Z,101711.34
2023-05-08T20:17:45.648Z,101719.47
2023-05-08T20:20:13.140Z,101708.19
2023-05-08T20:22:40.482Z,101715.34
2023-05-08T20:25:07.689Z,101711.91
2023-05-08T20:27:34.734Z,101704.88
2023-05-08T20:30:01.675Z,101708.28
2023-05-08T20:32:28.956Z,101707.13
2023-05-08T20:34:55.993Z,101706.63
2023-05-08T20:37:23.032Z,101705.97
2023-05-08T20:39:50.340Z,101704.88
2023-05-08T20:42:17.249Z,101706.81
2023-05-08T20:44:44.383Z,101703.84
2023-05-08T20:47:11.336Z,101708.59
2023-05-08T20:49:38.230Z,101715.91
2023-05-08T20:52:05.852Z,101707.50
2023-05-08T20:54:32.796Z,101719.28
2023-05-08T20:56:59.785Z,101709.81
2023-05-08T20:59:26.648Z,101709.66
2023-05-08T21:01:53.515Z,101714.13
2023-05-08T21:04:20.568Z,101715.44
2023-05-08T21:06:47.454Z,101707.72
2023-05-08T21:09:14.347Z,101710.31
2023-05-08T21:11:41.227Z,101709.47
2023-05-08T21:14:08.160Z,101713.44
2023-05-08T21:16:36.255Z,101699.31
2023-05-08T21:19:03.214Z,101703.84
2023-05-08T21:21:30.114Z,101704.66
2023-05-08T21:23:57.324Z,101701.56
2023-05-08T21:26:24.255Z,101702.75
2023-05-08T21:28:53.899Z,101700.88
2023-05-08T21:31:20.794Z,101702.22
2023-05-08T21:33:47.756Z,101697.69
2023-05-08T21:36:14.763Z,101704.84
2023-05-08T21:38:41.796Z,101696.03
2023-05-08T21:41:09.225Z,101685.81
2023-05-08T21:43:36.450Z,101689.50
2023-05-08T21:46:06.453Z,101687.72
2023-05-08T21:48:34.049Z,101680.03
2023-05-08T21:51:01.616Z,101690.88
2023-05-08T21:53:28.648Z,101690.44
2023-05-08T21:55:55.630Z,101693.97
2023-05-08T21:58:22.609Z,101698.44
2023-05-08T22:00:49.498Z,101692.34
2023-05-08T22:03:16.450Z,101690.38
2023-05-08T22:05:43.669Z,101683.47
2023-05-08T22:08:10.921Z,101685.38
2023-05-08T22:10:37.820Z,101682.25
2023-05-08T22:13:06.641Z,101673.66
2023-05-08T22:15:33.777Z,101673.22
2023-05-08T22:18:02.988Z,101675.34
2023-05-08T22:20:30.202Z,101678.25
2023-05-08T22:22:57.292Z,101671.91
2023-05-08T22:25:25.467Z,101677.31
2023-05-08T22:27:53.738Z,101671.19
2023-05-08T22:30:20.659Z,101669.56
2023-05-08T22:32:55.567Z,101672.47
2023-05-08T22:35:24.836Z,101669.59
2023-05-08T22:37:52.670Z,101665.56
2023-05-08T22:40:21.722Z,101668.97
2023-05-08T22:42:48.780Z,101665.13
2023-05-08T22:45:16.135Z,101666.56
2023-05-08T22:47:43.887Z,101662.94
2023-05-08T22:50:11.964Z,101662.34
2023-05-08T22:52:39.560Z,101657.88
2023-05-08T22:55:07.301Z,101653.66
2023-05-08T22:57:34.356Z,101648.28
2023-05-08T23:00:01.465Z,101649.81
2023-05-08T23:02:33.284Z,101642.69
2023-05-08T23:05:00.839Z,101647.25
2023-05-08T23:07:28.803Z,101640.03
2023-05-08T23:09:55.740Z,101636.50
2023-05-08T23:12:22.754Z,101639.34
2023-05-08T23:14:49.695Z,101635.97
2023-05-08T23:17:16.618Z,101635.31
2023-05-08T23:19:43.602Z,101627.50
2023-05-08T23:22:10.550Z,101626.63
2023-05-08T23:24:37.504Z,101624.75
2023-05-08T23:27:04.541Z,101624.84
2023-05-08T23:29:31.797Z,101622.16
2023-05-08T23:31:59.862Z,101615.91
2023-05-08T23:34:26.771Z,101623.13
2023-05-08T23:36:53.939Z,101608.00
2023-05-08T23:39:20.901Z,101615.28
2023-05-08T23:41:48.086Z,101604.31
2023-05-08T23:44:15.688Z,101606.69
2023-05-08T23:46:43.285Z,101605.25
2023-05-08T23:49:10.329Z,101607.69
2023-05-08T23:51:37.530Z,101601.13
2023-05-08T23:54:04.956Z,101610.41
2023-05-08T23:56:31.835Z,101598.84
2023-05-08T23:58:58.683Z,101602.84
